Time;durP1;ratioP1;P1;durP2;ratioP2;P2;SDS_P1;SDS_P2;PMS_P1;PMS_P2;Temp;Humidity;BMP_temperature;BMP_pressure;BME280_temperature;BME280_humidity;BME280_pressure;Samples;Min_cycle;Max_cycle;Signal;HPM_P1;HPM_P2
2021/05/14 00:02:13;;;;;;;20.98;4.05;;;39.70;13.20;;;;;;5114740;28;20163;-67
2021/05/14 00:04:40;;;;;;;21.83;3.72;;;39.70;13.50;;;;;;5114448;28;20450;-69
2021/05/14 00:07:06;;;;;;;40.13;4.40;;;39.60;13.90;;;;;;5115133;28;20175;-69
2021/05/14 00:09:33;;;;;;;18.08;4.03;;;39.70;13.40;;;;;;5096356;28;20080;-68
2021/05/14 00:11:59;;;;;;;23.65;4.78;;;39.60;14.00;;;;;;5114324;28;20117;-67
2021/05/14 00:14:26;;;;;;;18.08;3.83;;;39.60;13.90;;;;;;5114353;28;20060;-67
2021/05/14 00:16:52;;;;;;;18.25;4.45;;;39.50;13.70;;;;;;5114424;28;20194;-69
2021/05/14 00:19:19;;;;;;;19.08;3.88;;;39.60;13.70;;;;;;5096167;28;20068;-68
2021/05/14 00:21:45;;;;;;;21.17;4.50;;;39.50;13.60;;;;;;5114191;28;20582;-66
2021/05/14 00:24:12;;;;;;;22.95;4.03;;;39.50;13.70;;;;;;5114283;28;20433;-69
2021/05/14 00:30:00;;;;;;;24.65;4.25;;;39.50;13.50;;;;;;5115007;28;20083;-70
2021/05/14 00:32:27;;;;;;;17.85;4.50;;;39.30;13.70;;;;;;5114610;28;20064;-70
2021/05/14 00:34:53;;;;;;;24.33;3.78;;;39.10;13.90;;;;;;5113998;28;20125;-68
2021/05/14 00:37:20;;;;;;;24.73;4.00;;;39.20;14.20;;;;;;5095585;28;20079;-68
2021/05/14 00:39:46;;;;;;;17.02;3.72;;;39.20;14.10;;;;;;5113863;28;20151;-68
2021/05/14 00:42:13;;;;;;;23.58;3.40;;;39.20;13.90;;;;;;5095661;28;20076;-70
2021/05/14 00:44:48;;;;;;;18.38;4.07;;;39.10;13.70;;;;;;5114100;28;20076;-70
2021/05/14 00:47:17;;;;;;;16.50;3.65;;;39.10;13.80;;;;;;5113813;28;20107;-68
2021/05/14 00:49:45;;;;;;;19.88;3.97;;;38.90;13.70;;;;;;5095569;28;20163;-69
2021/05/14 00:52:15;;;;;;;18.38;3.80;;;38.90;13.60;;;;;;5113716;28;20521;-68
2021/05/14 00:54:43;;;;;;;16.90;3.60;;;38.70;13.60;;;;;;5113843;28;20570;-68
2021/05/14 00:57:12;;;;;;;31.85;4.53;;;38.50;13.70;;;;;;5095342;28;20460;-68
2021/05/14 00:59:39;;;;;;;22.50;4.38;;;38.50;13.70;;;;;;5095033;28;20107;-68
2021/05/14 01:05:27;;;;;;;27.83;4.47;;;38.30;14.00;;;;;;5101009;28;20118;-68
2021/05/14 01:07:58;;;;;;;19.73;3.90;;;38.30;14.00;;;;;;5095260;28;20080;-69
2021/05/14 01:10:24;;;;;;;16.45;3.65;;;38.20;14.00;;;;;;5113539;28;20083;-68
2021/05/14 01:12:50;;;;;;;27.02;3.88;;;38.20;14.00;;;;;;5113674;28;20171;-68
2021/05/14 01:15:17;;;;;;;26.23;4.35;;;38.10;14.20;;;;;;5113664;28;20068;-70
2021/05/14 01:17:44;;;;;;;16.40;3.63;;;38.10;14.00;;;;;;5095278;28;20072;-68
2021/05/14 01:20:11;;;;;;;21.13;4.00;;;38.00;14.30;;;;;;5095344;28;20126;-67
2021/05/14 01:22:39;;;;;;;19.90;3.70;;;38.00;14.20;;;;;;5094638;28;20076;-67
2021/05/14 01:25:06;;;;;;;12.98;3.60;;;37.90;13.90;;;;;;5095019;28;20600;-67
2021/05/14 01:27:33;;;;;;;16.13;3.97;;;37.70;14.20;;;;;;5113460;28;20076;-68
2021/05/14 01:30:00;;;;;;;20.25;3.42;;;37.60;14.40;;;;;;5095643;28;20068;-68
2021/05/14 01:32:26;;;;;;;18.70;4.03;;;37.50;14.60;;;;;;5113350;28;20526;-68
2021/05/14 01:34:53;;;;;;;19.10;3.95;;;37.50;16.00;;;;;;5095336;28;20071;-68
2021/05/14 01:37:19;;;;;;;18.25;3.83;;;37.60;14.60;;;;;;5113400;28;20075;-69
2021/05/14 01:39:46;;;;;;;25.33;3.97;;;37.60;14.60;;;;;;5113380;28;20264;-68
2021/05/14 01:42:12;;;;;;;25.80;4.00;;;37.60;15.40;;;;;;5113433;28;20145;-68
2021/05/14 01:44:39;;;;;;;30.92;4.07;;;37.60;15.30;;;;;;5113348;28;20714;-68
2021/05/14 01:47:05;;;;;;;22.10;3.90;;;37.60;15.30;;;;;;5113490;28;20096;-69
2021/05/14 01:49:31;;;;;;;19.85;4.25;;;37.40;15.60;;;;;;5113327;28;20072;-69
2021/05/14 01:51:58;;;;;;;18.30;3.88;;;37.40;15.80;;;;;;5113167;28;20039;-70
2021/05/14 01:54:24;;;;;;;14.98;3.90;;;37.40;15.50;;;;;;5113121;28;20075;-68
2021/05/14 01:56:51;;;;;;;18.42;4.57;;;37.40;15.30;;;;;;5113327;28;20051;-68
2021/05/14 01:59:19;;;;;;;23.40;4.65;;;37.20;15.20;;;;;;5113132;28;20068;-68
2021/05/14 02:01:45;;;;;;;21.33;4.03;;;36.90;15.20;;;;;;5095033;28;20076;-68
2021/05/14 02:04:12;;;;;;;20.25;4.13;;;36.60;15.70;;;;;;5113125;28;20454;-69
2021/05/14 02:06:39;;;;;;;29.63;4.43;;;36.40;15.70;;;;;;5112820;28;20142;-68
2021/05/14 02:09:06;;;;;;;32.42;4.78;;;36.10;16.50;;;;;;5113097;28;20070;-67
2021/05/14 02:11:33;;;;;;;24.63;4.70;;;35.90;15.90;;;;;;5094791;28;20432;-68
2021/05/14 02:14:00;;;;;;;22.23;4.10;;;35.70;15.80;;;;;;5112909;28;20156;-68
2021/05/14 02:16:27;;;;;;;32.58;4.82;;;35.60;15.70;;;;;;5113320;28;20479;-68
2021/05/14 02:18:53;;;;;;;27.67;5.47;;;35.50;15.70;;;;;;5094735;28;20072;-70
2021/05/14 02:24:43;;;;;;;32.20;4.90;;;35.20;16.10;;;;;;5115154;28;20078;-69
2021/05/14 02:27:09;;;;;;;28.33;5.60;;;35.10;16.20;;;;;;5117648;28;20124;-68
2021/05/14 02:29:36;;;;;;;45.40;5.20;;;35.00;16.30;;;;;;5117374;28;20056;-67
2021/05/14 02:32:04;;;;;;;43.92;5.20;;;34.90;16.30;;;;;;5114519;28;20068;-68
2021/05/14 02:34:31;;;;;;;40.75;5.22;;;34.80;16.40;;;;;;5114934;28;20099;-68
2021/05/14 02:36:58;;;;;;;29.27;4.97;;;34.70;16.40;;;;;;5098639;28;20088;-69
2021/05/14 02:39:25;;;;;;;42.05;4.90;;;34.60;16.60;;;;;;5116916;28;20076;-68
2021/05/14 02:41:52;;;;;;;32.90;5.95;;;34.50;16.80;;;;;;5116567;28;20518;-69
2021/05/14 02:44:18;;;;;;;44.08;6.82;;;34.40;17.00;;;;;;5098262;28;20142;-68
2021/05/14 02:50:08;;;;;;;42.75;6.93;;;34.20;17.10;;;;;;5116964;28;20132;-69
2021/05/14 02:55:57;;;;;;;56.08;8.20;;;34.00;16.40;;;;;;5117375;28;20486;-68
2021/05/14 02:58:23;;;;;;;44.60;7.43;;;33.90;16.40;;;;;;5098548;28;20094;-67
2021/05/14 03:04:12;;;;;;;41.75;8.07;;;33.70;16.50;;;;;;5116998;28;20579;-68
2021/05/14 03:06:38;;;;;;;46.33;7.90;;;33.60;16.60;;;;;;5097692;28;20472;-68
2021/05/14 03:09:05;;;;;;;46.45;7.68;;;33.50;16.60;;;;;;5116276;28;20060;-68
2021/05/14 03:11:32;;;;;;;62.85;8.48;;;33.40;16.70;;;;;;5115842;28;20086;-69
2021/05/14 03:13:58;;;;;;;50.33;7.68;;;33.30;16.70;;;;;;5097751;28;20162;-70
2021/05/14 03:16:25;;;;;;;35.10;7.00;;;33.30;16.40;;;;;;5115973;28;20561;-67
2021/05/14 03:18:51;;;;;;;151.05;12.68;;;33.20;16.70;;;;;;5097560;28;20075;-67
2021/05/14 03:21:18;;;;;;;52.30;7.75;;;33.10;16.60;;;;;;5115739;28;20129;-68
2021/05/14 03:23:44;;;;;;;34.90;6.35;;;33.00;16.70;;;;;;5115725;28;20065;-66
2021/05/14 03:29:33;;;;;;;45.70;6.50;;;32.80;16.70;;;;;;5115916;28;20091;-66
2021/05/14 03:35:22;;;;;;;37.83;5.60;;;32.70;16.80;;;;;;5115579;28;20116;-67
2021/05/14 03:37:49;;;;;;;49.00;6.15;;;32.60;16.90;;;;;;5097125;28;20189;-69
2021/05/14 03:40:17;;;;;;;42.47;6.47;;;32.50;16.80;;;;;;5115470;28;20069;-69
2021/05/14 03:42:44;;;;;;;36.53;5.70;;;32.40;16.80;;;;;;5115105;28;20079;-68
2021/05/14 03:45:11;;;;;;;49.58;7.20;;;32.30;16.80;;;;;;5115013;28;20075;-70
2021/05/14 03:47:38;;;;;;;37.53;6.38;;;32.30;16.60;;;;;;5114597;28;20537;-69
2021/05/14 03:50:06;;;;;;;36.33;5.65;;;32.20;17.20;;;;;;5114825;28;20080;-68
2021/05/14 03:52:33;;;;;;;36.03;5.35;;;32.20;16.70;;;;;;5114702;28;20071;-70
2021/05/14 03:55:01;;;;;;;29.10;5.95;;;32.20;16.70;;;;;;5114673;28;20152;-69
2021/05/14 03:57:27;;;;;;;26.20;5.13;;;32.10;16.80;;;;;;5114675;28;20072;-67
2021/05/14 03:59:54;;;;;;;33.22;5.20;;;32.10;16.70;;;;;;5096758;28;20080;-69
2021/05/14 04:02:20;;;;;;;25.70;4.90;;;32.00;16.60;;;;;;5114670;28;20518;-70
2021/05/14 04:04:47;;;;;;;30.58;5.28;;;31.90;16.90;;;;;;5114562;28;20138;-69
2021/05/14 04:07:13;;;;;;;30.98;5.15;;;31.90;17.10;;;;;;5096816;28;20087;-69
2021/05/14 04:09:47;;;;;;;31.73;5.22;;;31.90;17.20;;;;;;5114818;28;20060;-68
2021/05/14 04:14:27;;;;;;;25.88;5.88;;;31.80;17.10;;;;;;5096692;28;20445;-70
2021/05/14 04:15:00;;;;;;;41.38;6.55;;;31.70;16.90;;;;;;5114552;28;20117;-68
2021/05/14 04:17:26;;;;;;;24.10;6.07;;;31.70;17.40;;;;;;5114645;28;20449;-69
2021/05/14 04:19:53;;;;;;;33.45;5.93;;;31.50;17.20;;;;;;5114505;28;20079;-68
2021/05/14 04:22:19;;;;;;;40.10;6.18;;;31.50;18.40;;;;;;5113940;28;20076;-69
2021/05/14 04:24:46;;;;;;;34.13;6.13;;;31.40;18.10;;;;;;5113954;28;20160;-69
2021/05/14 04:27:14;;;;;;;34.42;6.28;;;31.40;18.10;;;;;;5114068;28;20099;-69
2021/05/14 04:29:41;;;;;;;43.22;7.10;;;31.30;18.30;;;;;;5114144;28;20060;-69
2021/05/14 04:32:08;;;;;;;42.47;7.70;;;31.20;18.00;;;;;;5113785;28;20080;-69
2021/05/14 04:34:34;;;;;;;43.28;10.93;;;31.10;17.80;;;;;;5114120;28;20537;-69
2021/05/14 04:37:01;;;;;;;46.88;11.60;;;31.10;17.80;;;;;;5114250;28;20140;-69
2021/05/14 04:39:28;;;;;;;49.83;14.70;;;31.00;18.20;;;;;;5114250;28;20072;-68
2021/05/14 04:41:54;;;;;;;50.63;15.60;;;30.90;18.10;;;;;;5095949;28;20072;-68
2021/05/14 04:44:21;;;;;;;57.25;14.38;;;30.90;18.00;;;;;;5114162;28;20086;-70
2021/05/14 04:46:47;;;;;;;55.53;16.98;;;30.90;17.70;;;;;;5114188;28;20092;-67
2021/05/14 04:49:14;;;;;;;73.15;17.30;;;30.80;17.50;;;;;;5114083;28;20510;-69
2021/05/14 04:51:40;;;;;;;52.63;15.13;;;30.70;18.10;;;;;;5095877;28;20087;-70
2021/05/14 04:54:07;;;;;;;51.75;14.63;;;30.70;18.10;;;;;;5095873;28;20068;-70
2021/05/14 04:56:33;;;;;;;51.50;12.43;;;30.60;17.80;;;;;;5114143;28;20120;-69
2021/05/14 04:59:00;;;;;;;59.05;11.55;;;30.60;18.10;;;;;;5113481;28;20072;-68
2021/05/14 05:01:27;;;;;;;51.42;12.63;;;30.50;18.60;;;;;;5114131;28;20093;-68
2021/05/14 05:03:55;;;;;;;49.65;11.45;;;30.50;18.50;;;;;;5095634;28;20091;-70
2021/05/14 05:06:21;;;;;;;55.85;11.93;;;30.40;18.40;;;;;;5113395;28;20168;-69
2021/05/14 05:08:48;;;;;;;56.22;14.07;;;30.40;18.20;;;;;;5095480;28;20160;-67
2021/05/14 05:11:15;;;;;;;51.40;13.27;;;30.30;18.30;;;;;;5113555;28;20072;-67
2021/05/14 05:13:42;;;;;;;40.20;11.10;;;30.30;18.90;;;;;;5113754;28;20087;-68
2021/05/14 05:16:08;;;;;;;38.83;10.18;;;30.30;19.20;;;;;;5113761;28;20092;-68
2021/05/14 05:18:35;;;;;;;40.13;9.90;;;30.20;19.90;;;;;;5113637;28;20151;-69
2021/05/14 05:21:02;;;;;;;39.55;8.43;;;30.20;19.90;;;;;;5113529;28;20129;-69
2021/05/14 05:23:28;;;;;;;36.63;8.32;;;30.20;20.00;;;;;;5113621;28;20072;-69
2021/05/14 05:25:55;;;;;;;36.10;7.00;;;30.10;20.30;;;;;;5095352;28;20099;-69
2021/05/14 05:28:30;;;;;;;37.90;8.45;;;30.10;20.50;;;;;;5095336;28;20125;-69
2021/05/14 05:30:57;;;;;;;32.58;7.22;;;30.10;20.70;;;;;;5095562;28;20074;-69
2021/05/14 05:33:23;;;;;;;29.23;6.25;;;30.00;20.70;;;;;;5113499;28;20104;-68
2021/05/14 05:35:50;;;;;;;26.52;6.43;;;30.00;20.90;;;;;;5095198;28;20072;-68
2021/05/14 05:38:21;;;;;;;28.98;6.78;;;30.00;21.10;;;;;;5113336;28;20060;-68
2021/05/14 05:40:50;;;;;;;37.38;6.28;;;29.90;21.30;;;;;;5113556;28;20100;-70
2021/05/14 05:43:17;;;;;;;28.70;5.75;;;29.90;21.50;;;;;;5095606;28;20068;-70
2021/05/14 05:45:44;;;;;;;17.67;5.00;;;29.80;21.50;;;;;;5095640;28;20104;-68
2021/05/14 05:48:11;;;;;;;30.60;5.72;;;29.90;21.40;;;;;;5113543;28;20069;-69
2021/05/14 05:50:39;;;;;;;26.50;6.43;;;29.80;21.60;;;;;;5113434;28;20072;-69
2021/05/14 05:53:07;;;;;;;30.27;5.75;;;29.80;21.60;;;;;;5113612;28;20057;-68
2021/05/14 05:55:34;;;;;;;25.48;6.28;;;29.70;21.60;;;;;;5113794;28;20420;-68
2021/05/14 05:58:14;;;;;;;27.52;6.00;;;29.70;21.60;;;;;;5113420;28;20068;-69
2021/05/14 06:00:42;;;;;;;36.08;5.20;;;29.60;21.80;;;;;;5113337;28;20141;-70
2021/05/14 06:03:12;;;;;;;27.17;4.68;;;29.60;21.90;;;;;;5095242;28;20398;-69
2021/05/14 06:05:39;;;;;;;22.05;4.93;;;29.60;22.20;;;;;;5113328;28;20214;-70
2021/05/14 06:08:06;;;;;;;20.23;4.20;;;29.50;22.60;;;;;;5113429;28;20072;-69
2021/05/14 06:10:33;;;;;;;20.73;4.72;;;29.40;22.40;;;;;;5098332;28;20511;-68
2021/05/14 06:12:59;;;;;;;19.65;4.75;;;29.40;22.30;;;;;;5117174;28;20072;-69
2021/05/14 06:18:54;;;;;;;22.63;3.85;;;29.30;22.20;;;;;;5117390;28;20082;-69
2021/05/14 06:21:21;;;;;;;29.50;5.50;;;29.20;22.40;;;;;;5098939;28;20103;-69
2021/05/14 06:23:47;;;;;;;28.75;4.20;;;29.20;22.60;;;;;;5116931;28;20414;-70
2021/05/14 06:26:15;;;;;;;18.35;4.20;;;29.10;22.80;;;;;;5116973;28;20088;-70
2021/05/14 06:28:42;;;;;;;19.38;4.72;;;29.10;22.70;;;;;;5117064;28;20183;-68
2021/05/14 06:31:08;;;;;;;25.27;4.50;;;29.10;22.50;;;;;;5116758;28;20080;-70
2021/05/14 06:33:35;;;;;;;29.63;4.13;;;29.00;22.70;;;;;;5116870;28;20621;-68
2021/05/14 06:36:02;;;;;;;21.25;4.90;;;29.00;22.80;;;;;;5098486;28;20106;-69
2021/05/14 06:41:50;;;;;;;26.63;4.72;;;28.90;22.40;;;;;;5117980;28;20079;-69
2021/05/14 06:44:17;;;;;;;23.15;4.43;;;28.80;22.70;;;;;;5117759;28;20072;-69
2021/05/14 06:46:44;;;;;;;20.20;4.75;;;28.70;22.60;;;;;;5098518;28;20549;-72
2021/05/14 06:49:11;;;;;;;20.15;3.92;;;28.60;22.90;;;;;;5098420;28;20133;-70
2021/05/14 06:51:38;;;;;;;14.38;4.32;;;28.60;22.80;;;;;;5116530;28;20159;-69
2021/05/14 06:54:06;;;;;;;19.73;4.22;;;28.60;22.90;;;;;;5116452;28;20171;-69
2021/05/14 06:56:32;;;;;;;14.95;3.92;;;28.50;22.90;;;;;;5116443;28;20099;-69
2021/05/14 06:58:59;;;;;;;21.30;4.10;;;28.50;22.30;;;;;;5098731;28;20072;-69
2021/05/14 07:01:25;;;;;;;20.02;3.97;;;28.50;21.50;;;;;;5098110;28;20068;-68
2021/05/14 07:03:53;;;;;;;18.33;3.20;;;28.40;21.70;;;;;;5098179;28;20068;-69
2021/05/14 07:06:19;;;;;;;8.90;2.72;;;28.40;20.60;;;;;;5097653;28;20124;-69
2021/05/14 07:08:50;;;;;;;22.15;3.60;;;28.40;20.10;;;;;;5102829;22;20117;-69
2021/05/14 07:11:17;;;;;;;19.83;3.83;;;28.40;19.50;;;;;;5069571;28;20069;-68
2021/05/14 07:13:44;;;;;;;26.73;3.80;;;28.30;19.40;;;;;;5065622;28;20441;-69
2021/05/14 07:16:10;;;;;;;12.00;3.20;;;28.30;19.00;;;;;;5061860;28;20077;-70
2021/05/14 07:18:37;;;;;;;27.35;3.95;;;28.30;19.10;;;;;;5057903;28;20102;-70
2021/05/14 07:21:04;;;;;;;15.05;3.20;;;28.20;19.10;;;;;;5057028;28;20096;-70
2021/05/14 07:23:33;;;;;;;15.45;3.10;;;28.30;19.00;;;;;;5061821;28;20078;-70
2021/05/14 07:26:00;;;;;;;20.25;3.45;;;28.20;19.10;;;;;;5059478;28;20085;-70
2021/05/14 07:28:26;;;;;;;18.40;3.40;;;28.20;19.10;;;;;;5058309;28;20084;-69
2021/05/14 07:30:53;;;;;;;23.42;3.70;;;28.20;19.20;;;;;;5057481;28;20070;-68
2021/05/14 07:33:20;;;;;;;14.85;3.67;;;28.10;19.00;;;;;;5055357;28;20097;-69
2021/05/14 07:35:47;;;;;;;17.58;4.55;;;28.10;19.00;;;;;;5076565;28;20109;-70
2021/05/14 07:38:13;;;;;;;19.02;4.30;;;28.10;19.20;;;;;;5056928;28;20104;-69
2021/05/14 07:40:40;;;;;;;18.88;4.07;;;28.10;18.70;;;;;;5058932;28;20085;-68
2021/05/14 07:43:07;;;;;;;20.38;4.35;;;28.10;18.70;;;;;;5059563;28;20104;-68
2021/05/14 07:45:34;;;;;;;15.98;4.57;;;28.00;18.60;;;;;;5055230;28;20594;-69
2021/05/14 07:48:03;;;;;;;14.75;3.65;;;28.00;18.30;;;;;;5055858;28;20155;-69
2021/05/14 07:50:30;;;;;;;19.08;4.15;;;28.10;18.30;;;;;;5060740;28;20076;-69
2021/05/14 07:53:01;;;;;;;14.63;3.88;;;28.00;18.30;;;;;;5061017;28;20073;-68
2021/05/14 07:55:27;;;;;;;15.30;3.97;;;28.00;18.10;;;;;;5058259;28;20073;-70
2021/05/14 07:57:54;;;;;;;14.82;4.20;;;28.00;18.70;;;;;;5057986;28;20073;-69
2021/05/14 08:00:23;;;;;;;14.63;4.15;;;28.00;18.10;;;;;;5057688;28;20081;-70
2021/05/14 08:02:51;;;;;;;20.08;4.13;;;28.00;18.20;;;;;;5061398;28;20111;-70
2021/05/14 08:05:17;;;;;;;15.13;3.38;;;28.00;17.90;;;;;;5054306;28;20070;-69
2021/05/14 08:07:44;;;;;;;19.50;4.13;;;27.90;17.80;;;;;;5055421;28;20109;-69
2021/05/14 08:10:12;;;;;;;15.95;3.40;;;27.90;17.80;;;;;;5057291;28;20089;-69
2021/05/14 08:12:39;;;;;;;14.68;3.10;;;27.90;17.90;;;;;;5057197;28;20079;-68
2021/05/14 08:15:06;;;;;;;13.68;2.88;;;27.90;17.60;;;;;;5057876;28;20065;-69
2021/05/14 08:17:33;;;;;;;14.95;3.67;;;27.90;18.30;;;;;;5060858;28;20073;-70
2021/05/14 08:19:59;;;;;;;14.90;3.70;;;27.80;18.60;;;;;;5054869;28;20076;-69
2021/05/14 08:22:26;;;;;;;16.50;3.00;;;27.70;18.90;;;;;;5060954;28;20088;-70
2021/05/14 08:24:53;;;;;;;16.75;3.08;;;27.70;19.70;;;;;;5057965;28;20080;-70
2021/05/14 08:27:19;;;;;;;15.80;3.72;;;27.60;19.60;;;;;;5056936;28;20097;-68
2021/05/14 08:29:46;;;;;;;15.68;4.03;;;27.50;20.20;;;;;;5057126;28;20089;-69
2021/05/14 08:32:12;;;;;;;15.85;3.70;;;27.50;20.30;;;;;;5081099;22;20553;-69
2021/05/14 08:34:39;;;;;;;15.73;3.90;;;27.40;19.80;;;;;;5058905;28;20077;-69
2021/05/14 08:37:05;;;;;;;17.00;3.70;;;27.30;20.40;;;;;;5057773;28;20101;-70
2021/05/14 08:39:32;;;;;;;15.85;3.88;;;27.30;20.60;;;;;;5057102;28;20089;-69
2021/05/14 08:42:02;;;;;;;21.17;4.95;;;27.20;20.40;;;;;;5058009;28;20494;-69
2021/05/14 08:44:28;;;;;;;19.73;3.83;;;27.20;20.60;;;;;;5058209;28;20085;-69
2021/05/14 08:46:55;;;;;;;25.00;5.32;;;27.20;20.80;;;;;;5056809;28;20171;-68
2021/05/14 08:49:23;;;;;;;24.13;4.32;;;27.10;21.50;;;;;;5060496;28;20156;-69
2021/05/14 08:51:51;;;;;;;21.13;5.03;;;27.00;21.30;;;;;;5055893;28;20105;-68
2021/05/14 08:54:18;;;;;;;21.00;4.68;;;27.00;21.90;;;;;;5057776;28;20070;-69
2021/05/14 08:56:45;;;;;;;26.73;5.38;;;26.90;21.80;;;;;;5058086;28;20088;-69
2021/05/14 08:59:11;;;;;;;32.10;5.93;;;26.90;21.90;;;;;;5058520;28;20569;-69
2021/05/14 09:01:41;;;;;;;23.52;5.07;;;26.80;21.60;;;;;;5059087;28;20105;-68
2021/05/14 09:04:11;;;;;;;29.80;5.10;;;26.80;21.50;;;;;;5060852;28;20065;-69
2021/05/14 09:06:40;;;;;;;34.33;5.85;;;26.70;22.30;;;;;;5060921;28;20096;-70
2021/05/14 09:09:09;;;;;;;33.65;5.90;;;26.60;22.30;;;;;;5058288;28;20081;-69
2021/05/14 09:11:45;;;;;;;22.27;5.57;;;26.50;22.20;;;;;;5075242;28;20534;-70
2021/05/14 09:14:38;;;;;;;24.03;5.47;;;26.40;21.80;;;;;;5053785;28;20770;-68
2021/05/14 09:17:07;;;;;;;24.95;5.40;;;26.30;21.60;;;;;;5058926;28;20176;-69
2021/05/14 09:19:39;;;;;;;27.83;5.80;;;26.20;21.40;;;;;;5058045;28;20160;-69
2021/05/14 09:22:15;;;;;;;26.48;5.00;;;26.20;22.40;;;;;;5054106;28;20084;-70
2021/05/14 09:24:46;;;;;;;21.80;5.45;;;26.20;22.30;;;;;;5055756;28;20565;-69
2021/05/14 09:27:30;;;;;;;19.23;5.00;;;25.80;22.50;;;;;;5057008;28;20570;-69
2021/05/14 09:29:59;;;;;;;38.40;7.38;;;26.10;23.20;;;;;;5052150;28;20073;-69
2021/05/14 09:32:27;;;;;;;44.90;8.32;;;26.00;23.40;;;;;;5062611;28;20191;-69
2021/05/14 09:34:56;;;;;;;75.93;11.30;;;25.90;23.90;;;;;;5072657;28;20081;-67
2021/05/14 09:37:25;;;;;;;64.15;10.48;;;25.90;24.30;;;;;;5059921;28;20530;-69
2021/05/14 09:40:18;;;;;;;69.30;11.60;;;25.80;24.80;;;;;;5057253;28;20131;-68
2021/05/14 09:42:46;;;;;;;76.53;14.88;;;25.80;25.70;;;;;;5059394;28;20486;-67
2021/05/14 09:45:26;;;;;;;88.80;17.27;;;25.70;26.30;;;;;;5059564;28;20143;-68
2021/05/14 09:47:59;;;;;;;73.90;17.38;;;25.60;28.50;;;;;;5062823;28;20089;-68
2021/05/14 09:50:30;;;;;;;86.68;19.08;;;25.50;30.90;;;;;;5060608;28;20530;-68
2021/05/14 09:53:17;;;;;;;78.80;16.77;;;25.50;32.40;;;;;;5063395;28;20099;-69
2021/05/14 09:56:26;;;;;;;57.70;15.53;;;25.30;33.50;;;;;;5058278;28;20452;-69
2021/05/14 09:58:38;;;;;;;71.43;16.67;;;25.20;34.80;;;;;;5061024;28;20298;-69
2021/05/14 10:01:07;;;;;;;74.22;14.98;;;25.10;35.60;;;;;;5064587;28;20076;-70
2021/05/14 10:03:36;;;;;;;64.93;13.93;;;25.00;36.50;;;;;;5063935;28;20074;-70
2021/05/14 10:06:03;;;;;;;59.97;14.75;;;24.90;37.10;;;;;;5060568;28;20146;-70
2021/05/14 10:08:33;;;;;;;55.03;11.90;;;24.80;37.60;;;;;;5063608;28;20182;-68
2021/05/14 10:11:04;;;;;;;60.65;10.98;;;24.80;39.10;;;;;;5062252;28;20076;-69
2021/05/14 10:13:32;;;;;;;48.50;11.00;;;24.70;40.20;;;;;;5057088;28;20427;-69
2021/05/14 10:16:03;;;;;;;39.17;9.50;;;24.70;41.20;;;;;;5062193;28;20131;-69
2021/05/14 10:18:30;;;;;;;54.95;10.10;;;24.70;42.10;;;;;;5063063;28;20069;-69
2021/05/14 10:20:58;;;;;;;50.10;9.00;;;24.70;42.90;;;;;;5063858;28;20097;-69
2021/05/14 10:23:30;;;;;;;54.97;9.68;;;24.70;43.80;;;;;;5068906;22;20536;-68
2021/05/14 10:26:08;;;;;;;51.15;9.95;;;24.60;44.90;;;;;;5092558;28;20188;-69
2021/05/14 10:28:49;;;;;;;48.00;9.38;;;24.60;44.60;;;;;;5080683;28;20735;-69
2021/05/14 10:31:22;;;;;;;52.88;9.65;;;24.60;44.80;;;;;;5074328;28;20088;-69
2021/05/14 10:33:57;;;;;;;44.83;10.35;;;24.50;45.10;;;;;;5082296;28;20069;-68
2021/05/14 10:36:32;;;;;;;41.42;10.93;;;24.50;45.30;;;;;;5067713;22;20117;-69
2021/05/14 10:39:06;;;;;;;39.42;9.55;;;24.50;45.20;;;;;;5035782;28;20069;-70
2021/05/14 10:41:33;;;;;;;48.20;10.77;;;24.60;45.10;;;;;;5038726;28;20528;-69
2021/05/14 10:44:04;;;;;;;51.85;12.50;;;24.60;58.00;;;;;;5039875;28;20102;-67
2021/05/14 10:46:32;;;;;;;49.92;13.88;;;24.40;44.80;;;;;;5045030;28;20085;-69
2021/05/14 10:49:07;;;;;;;55.65;14.38;;;24.30;44.70;;;;;;5042308;28;20524;-68
2021/05/14 10:51:51;;;;;;;58.70;12.85;;;24.30;44.60;;;;;;5048695;22;20089;-68
2021/05/14 10:54:39;;;;;;;53.03;11.20;;;24.40;44.50;;;;;;5043957;28;20108;-68
2021/05/14 10:57:10;;;;;;;46.42;10.00;;;24.40;44.20;;;;;;5055014;28;20074;-69
2021/05/14 10:59:43;;;;;;;47.08;10.60;;;24.40;43.90;;;;;;5041187;28;20498;-69
2021/05/14 11:02:29;;;;;;;39.97;9.30;;;24.40;43.70;;;;;;5041299;28;20074;-67
2021/05/14 11:05:02;;;;;;;38.67;9.88;;;24.30;44.10;;;;;;5041625;28;20123;-67
2021/05/14 11:07:41;;;;;;;39.28;8.70;;;24.40;43.50;;;;;;5040473;28;20128;-69
2021/05/14 11:10:13;;;;;;;37.33;8.15;;;24.40;42.70;;;;;;5040071;28;20168;-69
2021/05/14 11:12:41;;;;;;;38.60;8.65;;;24.30;42.30;;;;;;5039138;28;20070;-69
2021/05/14 11:15:20;;;;;;;42.75;9.10;;;24.30;42.10;;;;;;5038028;28;20078;-70
2021/05/14 11:18:14;;;;;;;41.90;8.02;;;24.30;41.70;;;;;;5039258;28;20077;-69
2021/05/14 11:20:43;;;;;;;29.33;7.68;;;24.30;41.30;;;;;;5037185;28;20084;-68
2021/05/14 11:23:42;;;;;;;51.42;10.65;;;24.30;41.50;;;;;;5042353;28;20094;-69
2021/05/14 11:26:17;;;;;;;45.95;10.23;;;24.30;41.70;;;;;;5040576;28;20097;-68
2021/05/14 11:28:52;;;;;;;39.15;8.98;;;24.20;41.60;;;;;;5038640;28;20116;-68
2021/05/14 11:31:26;;;;;;;54.13;10.55;;;24.30;41.50;;;;;;5038237;28;20127;-68
2021/05/14 11:33:54;;;;;;;37.90;8.85;;;24.10;41.20;;;;;;5041212;28;20073;-69
2021/05/14 11:36:23;;;;;;;40.83;9.20;;;24.10;41.40;;;;;;5037498;28;20487;-68
2021/05/14 11:38:58;;;;;;;33.20;8.35;;;24.10;41.60;;;;;;5038214;28;20097;-69
2021/05/14 11:41:33;;;;;;;40.67;9.55;;;24.10;41.30;;;;;;5037894;28;20080;-69
2021/05/14 11:44:05;;;;;;;34.00;8.90;;;24.10;41.40;;;;;;5034518;28;20116;-69
2021/05/14 11:46:34;;;;;;;43.10;9.93;;;24.00;41.80;;;;;;5055339;28;20121;-69
2021/05/14 11:49:07;;;;;;;47.08;10.63;;;24.00;41.40;;;;;;5040986;28;20069;-68
2021/05/14 11:51:35;;;;;;;40.17;9.48;;;24.10;42.00;;;;;;5037729;28;20218;-68
2021/05/14 11:54:15;;;;;;;44.78;9.98;;;24.10;41.70;;;;;;5043349;28;20098;-68
2021/05/14 11:56:42;;;;;;;40.25;10.38;;;24.00;41.90;;;;;;5042585;28;20112;-68
2021/05/14 11:59:25;;;;;;;39.78;10.02;;;23.90;41.90;;;;;;5044852;28;20132;-68
2021/05/14 12:01:51;;;;;;;39.65;10.10;;;23.90;41.90;;;;;;5042105;28;20074;-67
2021/05/14 12:04:18;;;;;;;43.90;10.48;;;23.80;42.00;;;;;;5042336;28;20147;-69
2021/05/14 12:06:51;;;;;;;49.72;9.75;;;23.80;41.80;;;;;;5038348;28;20094;-70
2021/05/14 12:09:18;;;;;;;41.60;8.77;;;23.80;41.80;;;;;;5035992;28;20074;-68
2021/05/14 12:11:45;;;;;;;50.63;9.35;;;23.70;41.80;;;;;;5037973;28;20066;-70
2021/05/14 12:14:22;;;;;;;42.85;9.57;;;23.70;42.00;;;;;;5036439;28;20085;-69
2021/05/14 12:16:48;;;;;;;46.05;12.50;;;23.60;42.10;;;;;;5038032;28;20084;-69
2021/05/14 12:19:15;;;;;;;41.05;12.85;;;23.60;42.20;;;;;;5036698;28;20086;-70
2021/05/14 12:21:41;;;;;;;58.83;15.82;;;23.60;42.50;;;;;;5040635;28;20066;-69
2021/05/14 12:24:18;;;;;;;50.22;14.90;;;23.70;41.90;;;;;;5040680;28;20151;-69
2021/05/14 12:26:46;;;;;;;56.50;14.32;;;23.60;41.90;;;;;;5056227;28;20130;-68
2021/05/14 12:29:39;;;;;;;46.70;13.65;;;23.60;42.10;;;;;;5039392;28;20073;-69
2021/05/14 12:32:05;;;;;;;50.20;13.57;;;23.60;42.00;;;;;;5037438;28;20089;-70
2021/05/14 12:34:33;;;;;;;49.78;13.27;;;23.50;42.30;;;;;;5038986;28;20169;-69
2021/05/14 12:37:00;;;;;;;49.78;11.98;;;23.40;42.30;;;;;;5038995;28;20070;-69
2021/05/14 12:39:27;;;;;;;57.00;13.38;;;23.40;42.30;;;;;;5037186;28;20148;-69
2021/05/14 12:42:02;;;;;;;47.08;12.95;;;23.40;42.30;;;;;;5057282;28;20082;-70
2021/05/14 12:44:31;;;;;;;46.35;13.05;;;23.40;42.40;;;;;;5037307;28;20154;-69
2021/05/14 12:47:04;;;;;;;54.45;14.25;;;23.40;42.50;;;;;;5039180;28;20097;-69
2021/05/14 12:49:55;;;;;;;47.83;12.15;;;23.40;42.30;;;;;;5039651;28;20065;-70
2021/05/14 12:52:32;;;;;;;68.10;15.75;;;23.40;42.20;;;;;;5038624;28;20109;-69
2021/05/14 12:55:14;;;;;;;51.63;15.10;;;23.30;42.20;;;;;;5035100;28;20092;-69
2021/05/14 12:57:43;;;;;;;64.43;16.55;;;23.30;42.60;;;;;;5039056;28;20173;-70
2021/05/14 13:00:14;;;;;;;73.18;15.63;;;23.20;42.90;;;;;;5034321;28;20092;-70
2021/05/14 13:02:50;;;;;;;63.75;16.00;;;23.10;43.00;;;;;;5036355;28;20545;-69
2021/05/14 13:05:17;;;;;;;66.50;18.25;;;23.10;43.40;;;;;;5036819;28;20084;-69
2021/05/14 13:07:59;;;;;;;75.50;19.67;;;23.10;43.40;;;;;;5035398;28;20442;-68
2021/05/14 13:10:44;;;;;;;68.75;18.10;;;23.00;51.40;;;;;;5037606;28;20078;-67
2021/05/14 13:13:12;;;;;;;61.88;17.40;;;23.10;43.70;;;;;;5041134;28;20494;-68
2021/05/14 13:15:39;;;;;;;78.15;17.77;;;23.10;44.00;;;;;;5040366;28;20081;-69
2021/05/14 13:18:06;;;;;;;76.55;18.08;;;23.10;44.30;;;;;;5040061;28;20472;-69